SondeTracker

Meteorological Radiosondes Database

Operations

Sounding was ended - last measurement: 2022-12-07 13:18:55z

MAP
About Radiosonde

Number: U2220412

Launch Site: Jackson [MS] (US)

Type: RS41

AUX: NO

Frequency: 403.401 MHz

Max Speed: 196 km/h at 32003 m

Average Speed: 91.95 km/h

Max Altitude: 33102 m

Average Ascent Speed: 5.06 m/s

Average Descent Speed: 19.85 m/s

Status: UNKNOWN

Status Changes
Launch Site Type AUX Frequency Status Finder Landing Point Description Changes made by
APRS Statistics

Received Frames: 75

First Frame [UTC]: 2022-12-07 11:38:10z

Last Frame [UTC]: 2022-12-07 13:18:55z

Receivers: N4XWC-2

Flight Time: 01:40:45 h

Distance From First Measurement: 145.88 km

Nearest City: Meridian [MS] (US) [52.11 km]

Nearest Hunter: [0.00 km]

Ground Altitude: 68 m

Distance from QTH: 0.00 km

APRS Data
Receiver Number Date/Time [UTC] φ λ Course [°] Speed [km/h] Altitude [m] Description
N4XWC-2U22204122022-12-07 13:18:5532.2614-88.154682372003Clb=-8.9m/s t=11.3C h=49.4% p=-1.0hPa 403.401 MHz Type=RS41-NG ser=U2220412 Radiosonde
N4XWC-2U22204122022-12-07 13:17:5432.261-88.159185432341Clb=-8.3m/s t=11.1C h=34.6% p=-1.0hPa 403.401 MHz Type=RS41-NG ser=U2220412 Radiosonde
N4XWC-2U22204122022-12-07 13:16:5532.259-88.16757442933Clb=-11.4m/s t=8.9C h=53.0% p=-1.0hPa 403.401 MHz Type=RS41-NG ser=U2220412 Radiosonde
N4XWC-2U22204122022-12-07 13:15:5032.256-88.173566463400Clb=-8.2m/s t=5.7C h=53.7% p=-1.0hPa 403.401 MHz Type=RS41-NG ser=U2220412 Radiosonde
N4XWC-2U22204122022-12-07 13:14:4832.2532-88.181373483909Clb=-8.4m/s t=1.8C h=49.4% p=-1.0hPa 403.401 MHz Type=RS41-NG ser=U2220412 Radiosonde
N4XWC-2U22204122022-12-07 13:13:5232.2504-88.189576464475Clb=-8.5m/s t=-2.6C h=71.2% p=-1.0hPa 403.401 MHz Type=RS41-NG ser=U2220412 Radiosonde
N4XWC-2U22204122022-12-07 13:13:5032.2486-88.197674524996Clb=-8.9m/s t=-4.8C h=38.4% p=-1.0hPa 403.401 MHz Type=RS41-NG ser=U2220412 Radiosonde
N4XWC-2U22204122022-12-07 13:13:2532.2478-88.207192575600Clb=-9.7m/s t=-8.0C h=71.1% p=-1.0hPa 403.401 MHz Type=RS41-NG ser=U2220412 Radiosonde
N4XWC-2U22204122022-12-07 13:12:3732.2477-88.219184746240Clb=-10.5m/s t=-11.1C h=58.1% p=-1.0hPa 403.401 MHz Type=RS41-NG ser=U2220412 Radiosonde
N4XWC-2U22204122022-12-07 13:11:4532.2469-88.232489766896Clb=-10.9m/s t=-15.5C h=54.9% p=-1.0hPa 403.401 MHz Type=RS41-NG ser=U2220412 Radiosonde
N4XWC-2U22204122022-12-07 13:10:5032.2484-88.24797837666Clb=-14.0m/s t=-22.2C h=55.4% p=-1.0hPa 403.401 MHz Type=RS41-NG ser=U2220412 Radiosonde
N4XWC-2U22204122022-12-07 13:09:5032.2488-88.261898818512Clb=-14.1m/s t=-28.2C h=45.1% p=-1.0hPa 403.401 MHz Type=RS41-NG ser=U2220412 Radiosonde
N4XWC-2U22204122022-12-07 13:08:4332.2511-88.2777103899389Clb=-14.6m/s t=-35.1C h=41.6% p=-1.0hPa 403.401 MHz Type=RS41-NG ser=U2220412 Radiosonde
N4XWC-2U22204122022-12-07 13:07:4032.2543-88.29321019110288Clb=-14.9m/s t=-42.6C h=37.4% p=-1.0hPa 403.401 MHz Type=RS41-NG ser=U2220412 Radiosonde
N4XWC-2U22204122022-12-07 13:06:2232.2569-88.3099968511194Clb=-16.5m/s t=-49.7C h=29.8% p=-1.0hPa 403.401 MHz Type=RS41-NG ser=U2220412 Radiosonde
N4XWC-2U22204122022-12-07 13:05:0032.2587-88.3261999812133Clb=-16.3m/s t=-57.8C h=36.1% p=-1.0hPa 403.401 MHz Type=RS41-NG ser=U2220412 Radiosonde
N4XWC-2U22204122022-12-07 13:03:4732.2635-88.344910413113039Clb=-14.2m/s t=-63.2C h=31.5% p=-1.0hPa 403.401 MHz Type=RS41-NG ser=U2220412 Radiosonde
N4XWC-2U22204122022-12-07 13:02:2732.2692-88.369610913913935Clb=-15.2m/s t=-70.1C h=18.6% p=-1.0hPa 403.401 MHz Type=RS41-NG ser=U2220412 Radiosonde
N4XWC-2U22204122022-12-07 13:00:5832.2738-88.38931008514838Clb=-14.8m/s t=-66.4C h=7.0% p=-1.0hPa 403.401 MHz Type=RS41-NG ser=U2220412 Radiosonde
N4XWC-2U22204122022-12-07 12:59:3432.2741-88.4041979315769Clb=-15.5m/s t=-70.7C h=7.8% p=-1.0hPa 403.401 MHz Type=RS41-NG ser=U2220412 Radiosonde
N4XWC-2U22204122022-12-07 12:58:3332.2744-88.4203928116752Clb=-16.5m/s t=-73.4C h=8.2% p=-1.0hPa 403.401 MHz Type=RS41-NG ser=U2220412 Radiosonde
N4XWC-2U22204122022-12-07 12:57:5932.2799-88.4609945420266Clb=-21.7m/s t=-71.6C h=3.3% p=-1.0hPa 403.401 MHz Type=RS41-NG ser=U2220412 Radiosonde
N4XWC-2U22204122022-12-07 12:57:5532.28-88.4667634321686Clb=-25.7m/s t=-67.1C h=2.1% p=-1.0hPa 403.401 MHz Type=RS41-NG ser=U2220412 Radiosonde
N4XWC-2U22204122022-12-07 12:57:5132.2799-88.4717973523313Clb=-30.9m/s t=-62.5C h=1.5% p=-1.0hPa 403.401 MHz Type=RS41-NG ser=U2220412 Radiosonde
N4XWC-2U22204122022-12-07 12:57:4732.2808-88.4814845425196Clb=-29.5m/s t=-54.3C h=0.8% p=-1.0hPa 403.401 MHz Type=RS41-NG ser=U2220412 Radiosonde
N4XWC-2U22204122022-12-07 12:57:4332.282-88.4944869127253Clb=-36.1m/s t=-50.3C h=0.6% p=-1.0hPa 403.401 MHz Type=RS41-NG ser=U2220412 Radiosonde
N4XWC-2U22204122022-12-07 12:56:1432.2823-88.51389313329598Clb=-42.7m/s t=-47.0C h=0.4% p=-1.0hPa 403.401 MHz Type=RS41-NG ser=U2220412 Radiosonde
N4XWC-2U22204122022-12-07 12:54:3332.2844-88.540210414631751Clb=-34.3m/s t=-36.5C h=0.2% p=-1.0hPa 403.401 MHz Type=RS41-NG ser=U2220412 Radiosonde
N4XWC-2U22204122022-12-07 12:52:4832.283-88.56836618733102Clb=8.8m/s t=-35.7C h=0.1% p=-1.0hPa 403.401 MHz Type=RS41-NG ser=U2220412 Radiosonde
N4XWC-2U22204122022-12-07 12:50:4632.2799-88.59617317832754Clb=1.7m/s t=-36.5C h=0.2% p=-1.0hPa 403.401 MHz Type=RS41-NG ser=U2220412 Radiosonde
N4XWC-2U22204122022-12-07 12:48:5532.2785-88.62348419332408Clb=2.8m/s t=-36.5C h=0.2% p=-1.0hPa 403.401 MHz Type=RS41-NG ser=U2220412 Radiosonde
N4XWC-2U22204122022-12-07 12:46:5432.2782-88.65210019632003Clb=3.5m/s t=-36.8C h=0.2% p=-1.0hPa 403.401 MHz Type=RS41-NG ser=U2220412 Radiosonde
N4XWC-2U22204122022-12-07 12:45:0032.2784-88.680910416531582Clb=2.4m/s t=-36.9C h=0.2% p=-1.0hPa 403.401 MHz Type=RS41-NG ser=U2220412 Radiosonde
N4XWC-2U22204122022-12-07 12:43:2532.278-88.706710615431185Clb=3.2m/s t=-41.5C h=0.3% p=-1.0hPa 403.401 MHz Type=RS41-NG ser=U2220412 Radiosonde
N4XWC-2U22204122022-12-07 12:42:1832.2802-88.73218714430781Clb=11.2m/s t=-44.2C h=0.4% p=-1.0hPa 403.401 MHz Type=RS41-NG ser=U2220412 Radiosonde
N4XWC-2U22204122022-12-07 12:41:1332.2849-88.75849715630383Clb=7.4m/s t=-45.9C h=0.4% p=-1.0hPa 403.401 MHz Type=RS41-NG ser=U2220412 Radiosonde
N4XWC-2U22204122022-12-07 12:40:5432.2977-88.954210310026483Clb=5.1m/s t=-53.0C h=0.8% p=-1.0hPa 403.401 MHz Type=RS41-NG ser=U2220412 Radiosonde
N4XWC-2U22204122022-12-07 12:38:2932.2998-88.96841127226110Clb=8.2m/s t=-53.2C h=0.8% p=-1.0hPa 403.401 MHz Type=RS41-NG ser=U2220412 Radiosonde
N4XWC-2U22204122022-12-07 12:36:0732.3024-88.98181035925740Clb=4.7m/s t=-53.5C h=0.8% p=-1.0hPa 403.401 MHz Type=RS41-NG ser=U2220412 Radiosonde
N4XWC-2U22204122022-12-07 12:33:4132.3043-88.99411015725374Clb=5.6m/s t=-54.9C h=0.9% p=-1.0hPa 403.401 MHz Type=RS41-NG ser=U2220412 Radiosonde
N4XWC-2U22204122022-12-07 12:31:1832.3038-89.00361105625018Clb=7.3m/s t=-58.3C h=1.1% p=-1.0hPa 403.401 MHz Type=RS41-NG ser=U2220412 Radiosonde
N4XWC-2U22204122022-12-07 12:28:4832.3049-89.0142933524670Clb=6.1m/s t=-60.5C h=1.2% p=-1.0hPa 403.401 MHz Type=RS41-NG ser=U2220412 Radiosonde
N4XWC-2U22204122022-12-07 12:26:1432.305-89.02381045724337Clb=8.3m/s t=-60.5C h=1.2% p=-1.0hPa 403.401 MHz Type=RS41-NG ser=U2220412 Radiosonde
N4XWC-2U22204122022-12-07 12:23:5532.307-89.0334915724010Clb=4.8m/s t=-59.6C h=1.2% p=-1.0hPa 403.401 MHz Type=RS41-NG ser=U2220412 Radiosonde
N4XWC-2U22204122022-12-07 12:22:5432.3093-89.0425765023675Clb=5.3m/s t=-59.9C h=1.2% p=-1.0hPa 403.401 MHz Type=RS41-NG ser=U2220412 Radiosonde
N4XWC-2U22204122022-12-07 12:20:1332.307-89.10991126520067Clb=6.9m/s t=-72.1C h=7.7% p=-1.0hPa 403.401 MHz Type=RS41-NG ser=U2220412 Radiosonde
N4XWC-2U22204122022-12-07 12:17:5632.3101-89.1222966119758Clb=5.6m/s t=-73.5C h=9.9% p=-1.0hPa 403.401 MHz Type=RS41-NG ser=U2220412 Radiosonde
N4XWC-2U22204122022-12-07 12:16:0232.3115-89.1342937419446Clb=6.0m/s t=-73.1C h=11.4% p=-1.0hPa 403.401 MHz Type=RS41-NG ser=U2220412 Radiosonde
N4XWC-2U22204122022-12-07 12:14:0832.3117-89.1473917819159Clb=5.5m/s t=-76.3C h=13.7% p=-1.0hPa 403.401 MHz Type=RS41-NG ser=U2220412 Radiosonde
N4XWC-2U22204122022-12-07 12:11:5432.3129-89.1607998518886Clb=5.8m/s t=-77.6C h=14.0% p=-1.0hPa 403.401 MHz Type=RS41-NG ser=U2220412 Radiosonde
N4XWC-2U22204122022-12-07 12:09:3632.3154-89.1759989118576Clb=4.4m/s t=-77.4C h=13.3% p=-1.0hPa 403.401 MHz Type=RS41-NG ser=U2220412 Radiosonde
N4XWC-2U22204122022-12-07 12:07:2032.3158-89.1902907218268Clb=5.9m/s t=-76.0C h=11.3% p=-1.0hPa 403.401 MHz Type=RS41-NG ser=U2220412 Radiosonde
N4XWC-2U22204122022-12-07 12:05:1132.3171-89.2036968117997Clb=4.2m/s t=-76.1C h=10.4% p=-1.0hPa 403.401 MHz Type=RS41-NG ser=U2220412 Radiosonde
N4XWC-2U22204122022-12-07 12:03:4332.3194-89.2171008117734Clb=3.9m/s t=-74.7C h=9.3% p=-1.0hPa 403.401 MHz Type=RS41-NG ser=U2220412 Radiosonde
N4XWC-2U22204122022-12-07 12:02:5132.3217-89.2573837616864Clb=5.1m/s t=-70.5C h=7.1% p=-1.0hPa 403.401 MHz Type=RS41-NG ser=U2220412 Radiosonde
N4XWC-2U22204122022-12-07 12:02:0432.3227-89.2714878716581Clb=5.6m/s t=-72.5C h=8.4% p=-1.0hPa 403.401 MHz Type=RS41-NG ser=U2220412 Radiosonde
N4XWC-2U22204122022-12-07 12:01:5432.3227-89.28728210016295Clb=3.3m/s t=-71.9C h=7.8% p=-1.0hPa 403.401 MHz Type=RS41-NG ser=U2220412 Radiosonde
N4XWC-2U22204122022-12-07 12:01:4732.322-89.3041858315999Clb=5.2m/s t=-69.6C h=6.8% p=-1.0hPa 403.401 MHz Type=RS41-NG ser=U2220412 Radiosonde
N4XWC-2U22204122022-12-07 12:01:0332.321-89.32098010015730Clb=3.0m/s t=-69.1C h=7.6% p=-1.0hPa 403.401 MHz Type=RS41-NG ser=U2220412 Radiosonde
N4XWC-2U22204122022-12-07 11:58:5632.321-89.33869310015467Clb=4.2m/s t=-69.9C h=8.6% p=-1.0hPa 403.401 MHz Type=RS41-NG ser=U2220412 Radiosonde
N4XWC-2U22204122022-12-07 11:56:3932.3208-89.3548848915181Clb=4.4m/s t=-68.5C h=9.5% p=-1.0hPa 403.401 MHz Type=RS41-NG ser=U2220412 Radiosonde
N4XWC-2U22204122022-12-07 11:54:4332.3221-89.37121019114868Clb=5.0m/s t=-66.9C h=13.0% p=-1.0hPa 403.401 MHz Type=RS41-NG ser=U2220412 Radiosonde
N4XWC-2U22204122022-12-07 11:52:4432.3256-89.390810012014541Clb=5.8m/s t=-67.9C h=22.4% p=-1.0hPa 403.401 MHz Type=RS41-NG ser=U2220412 Radiosonde
N4XWC-2U22204122022-12-07 11:51:2232.3294-89.41229512814265Clb=5.4m/s t=-68.4C h=38.7% p=-1.0hPa 403.401 MHz Type=RS41-NG ser=U2220412 Radiosonde
N4XWC-2U22204122022-12-07 11:51:1632.3468-89.51179714113204Clb=3.8m/s t=-64.4C h=34.0% p=-1.0hPa 403.401 MHz Type=RS41-NG ser=U2220412 Radiosonde
N4XWC-2U22204122022-12-07 11:51:1232.3511-89.536310713012913Clb=3.6m/s t=-62.5C h=35.0% p=-1.0hPa 403.401 MHz Type=RS41-NG ser=U2220412 Radiosonde
N4XWC-2U22204122022-12-07 11:49:4632.3565-89.557710512212636Clb=3.2m/s t=-61.7C h=-1.0% p=-1.0hPa 403.401 MHz Type=RS41-NG ser=U2220412 Radiosonde
N4XWC-2U22204122022-12-07 11:47:5632.3603-89.57710110612361Clb=3.8m/s t=-59.6C h=-1.0% p=-1.0hPa 403.401 MHz Type=RS41-NG ser=U2220412 Radiosonde
N4XWC-2U22204122022-12-07 11:45:5832.3623-89.59579710012085Clb=5.6m/s t=-57.8C h=-1.0% p=-1.0hPa 403.401 MHz Type=RS41-NG ser=U2220412 Radiosonde
N4XWC-2U22204122022-12-07 11:44:0332.3637-89.6139939311802Clb=5.1m/s t=-55.4C h=-1.0% p=-1.0hPa 403.401 MHz Type=RS41-NG ser=U2220412 Radiosonde
N4XWC-2U22204122022-12-07 11:43:4732.3644-89.6364938911450Clb=5.1m/s t=-273.0C h=-1.0% p=-1.0hPa 403.401 MHz Type=RS41-NG ser=U2220412 Radiosonde
N4XWC-2U22204122022-12-07 11:42:5632.3647-89.6505949611220Clb=5.0m/s t=-273.0C h=-1.0% p=-1.0hPa 403.401 MHz Type=RS41-NG ser=U2220412 Radiosonde
N4XWC-2U22204122022-12-07 11:41:3332.365-89.6645869110990Clb=4.7m/s t=-273.0C h=-1.0% p=-1.0hPa 403.401 MHz Type=RS41-NG ser=U2220412 Radiosonde
N4XWC-2U22204122022-12-07 11:39:5632.3657-89.68389410410684Clb=3.5m/s t=-273.0C h=-1.0% p=-1.0hPa 403.401 MHz Type=RS41 ser=U2220412 Radiosonde
N4XWC-2U22204122022-12-07 11:38:1032.367-89.70199211110425Clb=5.3m/s t=-273.0C h=-1.0% p=-1.0hPa 403.401 MHz Type=RS41 ser=U2220412 Radiosonde